Main page
METAR-TAF:

METAR-TAF

Airports :

Istrana Air Base

Treviso, Italy

latitude: 45-41N, longitude: 012-06E, elevation: 45 m

Current weather observation

The report was made 32 minutes ago, at 16:55 UTC
Wind 7 kt from the East
Temperature 17°C
Humidity 82%
Pressure 1011 hPa
Visibility 10 km or more
Broken clouds at a height of 10000 ft

METAR: LIPS 221655Z 09007KT 9999 BKN100 17/14 Q1011 RMK BKN VIS MIN 9999 WIND THR26 06006KT WIND THR08 09008KT BLU

Time: 19:27 (17:27 UTC)

Forecast

The report was made 3 hours and 27 minutes ago, at 14:00 UTC
Forecast valid from 22 at 15 UTC to 22 at 24 UTC
Wind 12 kt from the East
Visibility 10 km or more
Few clouds at a height of 1000 ft
Broken clouds at a height of 3000 ft
Becoming
from 22 at 21 UTC to 22 at 23 UTC
Visibility: 4000 m
Scattered clouds at a height of 1000 ft
Broken clouds at a height of 1500 ft
rain

TAF: LIPS 221400Z 2215/2224 08012KT 9999 FEW010 BKN030 BECMG 2221/2223 4000 RA SCT010 BKN015

Weather observations and forecasts of more than 4000 airports (METAR and TAF reports).

The available stations are represented by yellow and red dots on the map.

Hover mouse over dot to see the name of the station.

Then click to see weather observations and forecasts.

To change the map : click on the green buttons with a black cross to zoom in, on the green button with a dash to zoom out, or on the green arrows for adjacent maps.


METAR-TAF: